sensor_id;sensor_type;location;lat;lon;timestamp;P1;durP1;ratioP1;P2;durP2;ratioP2
26824;SDS011;14402;48.178;11.566;2023-02-01T00:00:15;2.7;;;2.1;;
26824;SDS011;14402;48.178;11.566;2023-02-01T00:00:45;2.7;;;2.1;;
26824;SDS011;14402;48.178;11.566;2023-02-01T00:01:15;3.3;;;2.4;;
26824;SDS011;14402;48.178;11.566;2023-02-01T00:01:45;4.0;;;2.8;;
26824;SDS011;14402;48.178;11.566;2023-02-01T00:02:15;4.0;;;2.8;;
26824;SDS011;14402;48.178;11.566;2023-02-01T00:02:45;4.0;;;2.8;;
26824;SDS011;14402;48.178;11.566;2023-02-01T00:03:15;4.0;;;2.8;;
26824;SDS011;14402;48.178;11.566;2023-02-01T00:03:45;4.0;;;2.7;;
26824;SDS011;14402;48.178;11.566;2023-02-01T00:04:16;4.0;;;2.7;;
26824;SDS011;14402;48.178;11.566;2023-02-01T00:04:46;4.0;;;2.7;;
26824;SDS011;14402;48.178;11.566;2023-02-01T00:05:16;3.6;;;2.5;;
26824;SDS011;14402;48.178;11.566;2023-02-01T00:05:54;3.2;;;2.3;;
26824;SDS011;14402;48.178;11.566;2023-02-01T00:06:16;3.2;;;2.3;;
26824;SDS011;14402;48.178;11.566;2023-02-01T00:06:46;3.2;;;2.3;;
26824;SDS011;14402;48.178;11.566;2023-02-01T00:07:16;3.0;;;2.4;;
26824;SDS011;14402;48.178;11.566;2023-02-01T00:07:46;2.8;;;2.5;;
26824;SDS011;14402;48.178;11.566;2023-02-01T00:08:16;2.8;;;2.5;;
26824;SDS011;14402;48.178;11.566;2023-02-01T00:08:46;2.8;;;2.5;;
26824;SDS011;14402;48.178;11.566;2023-02-01T00:09:16;3.0;;;2.6;;
26824;SDS011;14402;48.178;11.566;2023-02-01T00:09:46;3.3;;;2.7;;
26824;SDS011;14402;48.178;11.566;2023-02-01T00:10:17;3.3;;;2.7;;
26824;SDS011;14402;48.178;11.566;2023-02-01T00:10:47;3.3;;;2.7;;
26824;SDS011;14402;48.178;11.566;2023-02-01T00:11:17;3.4;;;2.6;;
26824;SDS011;14402;48.178;11.566;2023-02-01T00:11:47;3.5;;;2.4;;
26824;SDS011;14402;48.178;11.566;2023-02-01T00:12:17;3.5;;;2.4;;
26824;SDS011;14402;48.178;11.566;2023-02-01T00:12:47;3.5;;;2.4;;
26824;SDS011;14402;48.178;11.566;2023-02-01T00:13:17;4.1;;;2.5;;
26824;SDS011;14402;48.178;11.566;2023-02-01T00:13:47;4.6;;;2.6;;
26824;SDS011;14402;48.178;11.566;2023-02-01T00:14:17;4.6;;;2.6;;
26824;SDS011;14402;48.178;11.566;2023-02-01T00:14:47;4.6;;;2.6;;
26824;SDS011;14402;48.178;11.566;2023-02-01T00:15:17;4.1;;;2.5;;
26824;SDS011;14402;48.178;11.566;2023-02-01T00:15:47;3.6;;;2.4;;
26824;SDS011;14402;48.178;11.566;2023-02-01T00:16:18;3.6;;;2.4;;
26824;SDS011;14402;48.178;11.566;2023-02-01T00:16:48;3.6;;;2.4;;
26824;SDS011;14402;48.178;11.566;2023-02-01T00:17:19;3.5;;;2.4;;
26824;SDS011;14402;48.178;11.566;2023-02-01T00:17:48;3.5;;;2.4;;
26824;SDS011;14402;48.178;11.566;2023-02-01T00:18:18;3.5;;;2.4;;
26824;SDS011;14402;48.178;11.566;2023-02-01T00:18:49;3.5;;;2.4;;
26824;SDS011;14402;48.178;11.566;2023-02-01T00:19:18;3.2;;;2.2;;
26824;SDS011;14402;48.178;11.566;2023-02-01T00:19:48;3.0;;;2.1;;
26824;SDS011;14402;48.178;11.566;2023-02-01T00:20:18;3.0;;;2.1;;
26824;SDS011;14402;48.178;11.566;2023-02-01T00:20:48;3.0;;;2.1;;
26824;SDS011;14402;48.178;11.566;2023-02-01T00:21:19;3.3;;;2.4;;
26824;SDS011;14402;48.178;11.566;2023-02-01T00:21:48;3.7;;;2.7;;
26824;SDS011;14402;48.178;11.566;2023-02-01T00:22:18;3.7;;;2.7;;
26824;SDS011;14402;48.178;11.566;2023-02-01T00:22:49;3.7;;;2.7;;
26824;SDS011;14402;48.178;11.566;2023-02-01T00:23:19;3.3;;;2.7;;
26824;SDS011;14402;48.178;11.566;2023-02-01T00:23:49;2.9;;;2.6;;
26824;SDS011;14402;48.178;11.566;2023-02-01T00:24:19;2.9;;;2.6;;
26824;SDS011;14402;48.178;11.566;2023-02-01T00:24:49;2.9;;;2.6;;
26824;SDS011;14402;48.178;11.566;2023-02-01T00:25:19;3.9;;;2.5;;
26824;SDS011;14402;48.178;11.566;2023-02-01T00:25:49;4.9;;;2.5;;
26824;SDS011;14402;48.178;11.566;2023-02-01T00:26:20;4.9;;;2.5;;
26824;SDS011;14402;48.178;11.566;2023-02-01T00:26:49;4.9;;;2.5;;
26824;SDS011;14402;48.178;11.566;2023-02-01T00:27:19;4.0;;;2.4;;
26824;SDS011;14402;48.178;11.566;2023-02-01T00:27:49;3.0;;;2.3;;
26824;SDS011;14402;48.178;11.566;2023-02-01T00:28:19;3.0;;;2.3;;
26824;SDS011;14402;48.178;11.566;2023-02-01T00:28:50;3.0;;;2.3;;
26824;SDS011;14402;48.178;11.566;2023-02-01T00:29:20;3.0;;;2.3;;
26824;SDS011;14402;48.178;11.566;2023-02-01T00:29:50;2.9;;;2.3;;
26824;SDS011;14402;48.178;11.566;2023-02-01T00:30:20;2.9;;;2.3;;
26824;SDS011;14402;48.178;11.566;2023-02-01T00:30:55;3.3;;;2.4;;
26824;SDS011;14402;48.178;11.566;2023-02-01T00:31:20;3.8;;;2.5;;
26824;SDS011;14402;48.178;11.566;2023-02-01T00:31:50;3.8;;;2.5;;
26824;SDS011;14402;48.178;11.566;2023-02-01T00:32:20;3.8;;;2.5;;
26824;SDS011;14402;48.178;11.566;2023-02-01T00:32:50;3.8;;;2.5;;
26824;SDS011;14402;48.178;11.566;2023-02-01T00:33:20;3.8;;;2.6;;
26824;SDS011;14402;48.178;11.566;2023-02-01T00:33:50;3.8;;;2.6;;
26824;SDS011;14402;48.178;11.566;2023-02-01T00:34:20;3.8;;;2.6;;
26824;SDS011;14402;48.178;11.566;2023-02-01T00:34:51;3.8;;;2.6;;
26824;SDS011;14402;48.178;11.566;2023-02-01T00:35:20;3.9;;;2.6;;
26824;SDS011;14402;48.178;11.566;2023-02-01T00:35:51;3.9;;;2.6;;
26824;SDS011;14402;48.178;11.566;2023-02-01T00:36:21;3.9;;;2.6;;
26824;SDS011;14402;48.178;11.566;2023-02-01T00:36:51;3.5;;;2.4;;
26824;SDS011;14402;48.178;11.566;2023-02-01T00:37:21;3.0;;;2.3;;
26824;SDS011;14402;48.178;11.566;2023-02-01T00:37:51;3.0;;;2.3;;
26824;SDS011;14402;48.178;11.566;2023-02-01T00:38:21;3.0;;;2.3;;
26824;SDS011;14402;48.178;11.566;2023-02-01T00:38:51;2.8;;;2.3;;
26824;SDS011;14402;48.178;11.566;2023-02-01T00:39:21;2.5;;;2.3;;
26824;SDS011;14402;48.178;11.566;2023-02-01T00:39:51;2.5;;;2.3;;
26824;SDS011;14402;48.178;11.566;2023-02-01T00:40:21;2.5;;;2.3;;
26824;SDS011;14402;48.178;11.566;2023-02-01T00:40:51;2.5;;;2.2;;
26824;SDS011;14402;48.178;11.566;2023-02-01T00:41:22;2.6;;;2.2;;
26824;SDS011;14402;48.178;11.566;2023-02-01T00:41:52;2.6;;;2.2;;
26824;SDS011;14402;48.178;11.566;2023-02-01T00:42:22;2.6;;;2.2;;
26824;SDS011;14402;48.178;11.566;2023-02-01T00:42:52;2.8;;;2.4;;
26824;SDS011;14402;48.178;11.566;2023-02-01T00:43:22;2.9;;;2.6;;
26824;SDS011;14402;48.178;11.566;2023-02-01T00:43:52;2.9;;;2.6;;
26824;SDS011;14402;48.178;11.566;2023-02-01T00:44:22;2.9;;;2.6;;
26824;SDS011;14402;48.178;11.566;2023-02-01T00:44:52;2.9;;;2.5;;
26824;SDS011;14402;48.178;11.566;2023-02-01T00:45:22;2.9;;;2.4;;
26824;SDS011;14402;48.178;11.566;2023-02-01T00:45:52;2.9;;;2.4;;
26824;SDS011;14402;48.178;11.566;2023-02-01T00:46:23;2.9;;;2.4;;
26824;SDS011;14402;48.178;11.566;2023-02-01T00:46:52;3.7;;;2.5;;
26824;SDS011;14402;48.178;11.566;2023-02-01T00:47:22;4.5;;;2.5;;
26824;SDS011;14402;48.178;11.566;2023-02-01T00:47:53;4.5;;;2.5;;
26824;SDS011;14402;48.178;11.566;2023-02-01T00:48:23;4.5;;;2.5;;
26824;SDS011;14402;48.178;11.566;2023-02-01T00:48:53;3.7;;;2.4;;
26824;SDS011;14402;48.178;11.566;2023-02-01T00:49:23;2.9;;;2.3;;
26824;SDS011;14402;48.178;11.566;2023-02-01T00:49:53;2.9;;;2.3;;
26824;SDS011;14402;48.178;11.566;2023-02-01T00:50:23;2.9;;;2.3;;
26824;SDS011;14402;48.178;11.566;2023-02-01T00:50:53;3.3;;;2.3;;
26824;SDS011;14402;48.178;11.566;2023-02-01T00:51:24;3.7;;;2.3;;
26824;SDS011;14402;48.178;11.566;2023-02-01T00:51:53;3.7;;;2.3;;
26824;SDS011;14402;48.178;11.566;2023-02-01T00:52:23;3.7;;;2.3;;
26824;SDS011;14402;48.178;11.566;2023-02-01T00:52:53;3.2;;;2.3;;
26824;SDS011;14402;48.178;11.566;2023-02-01T00:53:23;2.7;;;2.4;;
26824;SDS011;14402;48.178;11.566;2023-02-01T00:53:54;2.7;;;2.4;;
26824;SDS011;14402;48.178;11.566;2023-02-01T00:54:24;2.7;;;2.4;;
26824;SDS011;14402;48.178;11.566;2023-02-01T00:54:54;3.3;;;2.5;;
26824;SDS011;14402;48.178;11.566;2023-02-01T00:55:24;3.9;;;2.6;;
26824;SDS011;14402;48.178;11.566;2023-02-01T00:55:54;3.9;;;2.6;;
26824;SDS011;14402;48.178;11.566;2023-02-01T00:56:24;3.9;;;2.6;;
26824;SDS011;14402;48.178;11.566;2023-02-01T00:56:54;3.8;;;2.7;;
26824;SDS011;14402;48.178;11.566;2023-02-01T00:57:24;3.7;;;2.7;;
26824;SDS011;14402;48.178;11.566;2023-02-01T00:57:54;3.7;;;2.7;;
26824;SDS011;14402;48.178;11.566;2023-02-01T00:58:24;3.7;;;2.7;;
26824;SDS011;14402;48.178;11.566;2023-02-01T00:58:54;3.8;;;2.7;;
26824;SDS011;14402;48.178;11.566;2023-02-01T00:59:24;4.0;;;2.7;;
26824;SDS011;14402;48.178;11.566;2023-02-01T00:59:55;4.0;;;2.7;;
26824;SDS011;14402;48.178;11.566;2023-02-01T01:00:25;4.0;;;2.7;;
26824;SDS011;14402;48.178;11.566;2023-02-01T01:01:04;3.5;;;2.7;;
26824;SDS011;14402;48.178;11.566;2023-02-01T01:01:25;3.1;;;2.6;;
26824;SDS011;14402;48.178;11.566;2023-02-01T01:01:55;3.1;;;2.6;;
26824;SDS011;14402;48.178;11.566;2023-02-01T01:02:25;3.1;;;2.6;;
26824;SDS011;14402;48.178;11.566;2023-02-01T01:02:55;3.2;;;2.6;;
26824;SDS011;14402;48.178;11.566;2023-02-01T01:03:25;3.3;;;2.6;;
26824;SDS011;14402;48.178;11.566;2023-02-01T01:03:56;3.3;;;2.6;;
26824;SDS011;14402;48.178;11.566;2023-02-01T01:04:25;3.3;;;2.6;;
26824;SDS011;14402;48.178;11.566;2023-02-01T01:04:55;3.2;;;2.5;;
26824;SDS011;14402;48.178;11.566;2023-02-01T01:05:25;3.2;;;2.5;;
26824;SDS011;14402;48.178;11.566;2023-02-01T01:05:56;3.2;;;2.5;;
26824;SDS011;14402;48.178;11.566;2023-02-01T01:06:26;3.2;;;2.5;;
26824;SDS011;14402;48.178;11.566;2023-02-01T01:06:56;3.2;;;2.5;;
26824;SDS011;14402;48.178;11.566;2023-02-01T01:07:26;3.3;;;2.6;;
26824;SDS011;14402;48.178;11.566;2023-02-01T01:07:56;3.3;;;2.6;;
26824;SDS011;14402;48.178;11.566;2023-02-01T01:08:26;3.3;;;2.6;;
26824;SDS011;14402;48.178;11.566;2023-02-01T01:08:56;3.7;;;2.8;;
26824;SDS011;14402;48.178;11.566;2023-02-01T01:09:26;4.0;;;2.9;;
26824;SDS011;14402;48.178;11.566;2023-02-01T01:09:56;4.0;;;2.9;;
26824;SDS011;14402;48.178;11.566;2023-02-01T01:10:26;4.0;;;2.9;;
26824;SDS011;14402;48.178;11.566;2023-02-01T01:10:56;4.3;;;2.8;;
26824;SDS011;14402;48.178;11.566;2023-02-01T01:11:27;4.6;;;2.8;;
26824;SDS011;14402;48.178;11.566;2023-02-01T01:11:56;4.6;;;2.8;;
26824;SDS011;14402;48.178;11.566;2023-02-01T01:12:26;4.6;;;2.8;;
26824;SDS011;14402;48.178;11.566;2023-02-01T01:12:57;3.8;;;2.8;;
26824;SDS011;14402;48.178;11.566;2023-02-01T01:13:27;3.0;;;2.7;;
26824;SDS011;14402;48.178;11.566;2023-02-01T01:13:57;3.0;;;2.7;;
26824;SDS011;14402;48.178;11.566;2023-02-01T01:14:27;3.0;;;2.7;;
26824;SDS011;14402;48.178;11.566;2023-02-01T01:14:57;3.1;;;2.7;;
26824;SDS011;14402;48.178;11.566;2023-02-01T01:15:27;3.2;;;2.7;;
26824;SDS011;14402;48.178;11.566;2023-02-01T01:15:59;3.2;;;2.7;;
26824;SDS011;14402;48.178;11.566;2023-02-01T01:16:28;3.2;;;2.7;;
26824;SDS011;14402;48.178;11.566;2023-02-01T01:16:57;3.2;;;2.8;;
26824;SDS011;14402;48.178;11.566;2023-02-01T01:17:28;3.3;;;2.8;;
26824;SDS011;14402;48.178;11.566;2023-02-01T01:17:57;3.3;;;2.8;;
26824;SDS011;14402;48.178;11.566;2023-02-01T01:18:28;3.3;;;2.8;;
26824;SDS011;14402;48.178;11.566;2023-02-01T01:18:58;3.4;;;2.9;;
26824;SDS011;14402;48.178;11.566;2023-02-01T01:19:28;3.6;;;3.0;;
26824;SDS011;14402;48.178;11.566;2023-02-01T01:19:58;3.6;;;3.0;;
26824;SDS011;14402;48.178;11.566;2023-02-01T01:20:28;3.6;;;3.0;;
26824;SDS011;14402;48.178;11.566;2023-02-01T01:20:58;3.8;;;3.0;;
26824;SDS011;14402;48.178;11.566;2023-02-01T01:21:28;4.0;;;2.9;;
26824;SDS011;14402;48.178;11.566;2023-02-01T01:21:58;4.0;;;2.9;;
26824;SDS011;14402;48.178;11.566;2023-02-01T01:22:28;4.0;;;2.9;;
26824;SDS011;14402;48.178;11.566;2023-02-01T01:22:58;3.5;;;2.8;;
26824;SDS011;14402;48.178;11.566;2023-02-01T01:23:28;3.1;;;2.6;;
26824;SDS011;14402;48.178;11.566;2023-02-01T01:23:59;3.1;;;2.6;;
26824;SDS011;14402;48.178;11.566;2023-02-01T01:24:29;3.1;;;2.6;;
26824;SDS011;14402;48.178;11.566;2023-02-01T01:24:59;3.9;;;2.8;;
26824;SDS011;14402;48.178;11.566;2023-02-01T01:25:29;4.7;;;3.1;;
26824;SDS011;14402;48.178;11.566;2023-02-01T01:25:59;4.7;;;3.1;;
26824;SDS011;14402;48.178;11.566;2023-02-01T01:26:29;4.7;;;3.1;;
26824;SDS011;14402;48.178;11.566;2023-02-01T01:26:59;4.0;;;2.9;;
26824;SDS011;14402;48.178;11.566;2023-02-01T01:27:29;3.3;;;2.8;;
26824;SDS011;14402;48.178;11.566;2023-02-01T01:27:59;3.3;;;2.8;;
26824;SDS011;14402;48.178;11.566;2023-02-01T01:28:29;3.3;;;2.8;;
26824;SDS011;14402;48.178;11.566;2023-02-01T01:28:59;3.2;;;2.8;;
26824;SDS011;14402;48.178;11.566;2023-02-01T01:29:29;3.1;;;2.8;;
26824;SDS011;14402;48.178;11.566;2023-02-01T01:29:59;3.1;;;2.8;;
26824;SDS011;14402;48.178;11.566;2023-02-01T01:30:30;3.1;;;2.8;;
26824;SDS011;14402;48.178;11.566;2023-02-01T01:31:00;3.2;;;2.9;;
26824;SDS011;14402;48.178;11.566;2023-02-01T01:31:30;3.4;;;3.1;;
26824;SDS011;14402;48.178;11.566;2023-02-01T01:32:00;3.4;;;3.1;;
26824;SDS011;14402;48.178;11.566;2023-02-01T01:32:30;3.4;;;3.1;;
26824;SDS011;14402;48.178;11.566;2023-02-01T01:33:00;4.0;;;3.1;;
26824;SDS011;14402;48.178;11.566;2023-02-01T01:33:30;4.5;;;3.1;;
26824;SDS011;14402;48.178;11.566;2023-02-01T01:34:00;4.5;;;3.1;;
26824;SDS011;14402;48.178;11.566;2023-02-01T01:34:30;4.5;;;3.1;;
26824;SDS011;14402;48.178;11.566;2023-02-01T01:35:00;4.1;;;3.1;;
26824;SDS011;14402;48.178;11.566;2023-02-01T01:35:30;3.7;;;3.1;;
26824;SDS011;14402;48.178;11.566;2023-02-01T01:36:00;3.7;;;3.1;;
26824;SDS011;14402;48.178;11.566;2023-02-01T01:36:30;3.7;;;3.1;;
26824;SDS011;14402;48.178;11.566;2023-02-01T01:37:00;3.5;;;3.0;;
26824;SDS011;14402;48.178;11.566;2023-02-01T01:37:31;3.3;;;3.0;;
26824;SDS011;14402;48.178;11.566;2023-02-01T01:38:01;3.3;;;3.0;;
26824;SDS011;14402;48.178;11.566;2023-02-01T01:38:31;3.3;;;3.0;;
26824;SDS011;14402;48.178;11.566;2023-02-01T01:39:01;3.6;;;3.0;;
26824;SDS011;14402;48.178;11.566;2023-02-01T01:39:31;3.9;;;3.1;;
26824;SDS011;14402;48.178;11.566;2023-02-01T01:40:01;3.9;;;3.1;;
26824;SDS011;14402;48.178;11.566;2023-02-01T01:40:31;3.9;;;3.1;;
26824;SDS011;14402;48.178;11.566;2023-02-01T01:41:01;4.1;;;3.2;;
26824;SDS011;14402;48.178;11.566;2023-02-01T01:41:31;4.2;;;3.2;;
26824;SDS011;14402;48.178;11.566;2023-02-01T01:42:01;4.2;;;3.2;;
26824;SDS011;14402;48.178;11.566;2023-02-01T01:42:36;4.2;;;3.2;;
26824;SDS011;14402;48.178;11.566;2023-02-01T01:43:01;3.8;;;3.2;;
26824;SDS011;14402;48.178;11.566;2023-02-01T01:43:48;3.5;;;3.2;;
26824;SDS011;14402;48.178;11.566;2023-02-01T01:44:02;3.5;;;3.2;;
26824;SDS011;14402;48.178;11.566;2023-02-01T01:45:04;3.5;;;3.2;;
26824;SDS011;14402;48.178;11.566;2023-02-01T01:45:06;4.0;;;3.2;;
26824;SDS011;14402;48.178;11.566;2023-02-01T01:45:33;4.4;;;3.1;;
26824;SDS011;14402;48.178;11.566;2023-02-01T01:46:02;4.4;;;3.1;;
26824;SDS011;14402;48.178;11.566;2023-02-01T01:46:33;4.4;;;3.1;;
26824;SDS011;14402;48.178;11.566;2023-02-01T01:47:02;3.9;;;3.1;;
26824;SDS011;14402;48.178;11.566;2023-02-01T01:47:33;3.4;;;3.1;;
26824;SDS011;14402;48.178;11.566;2023-02-01T01:48:03;3.4;;;3.1;;
26824;SDS011;14402;48.178;11.566;2023-02-01T01:48:32;3.4;;;3.1;;
26824;SDS011;14402;48.178;11.566;2023-02-01T01:49:04;3.5;;;3.2;;
26824;SDS011;14402;48.178;11.566;2023-02-01T01:49:32;3.6;;;3.3;;
26824;SDS011;14402;48.178;11.566;2023-02-01T01:50:03;3.6;;;3.3;;
26824;SDS011;14402;48.178;11.566;2023-02-01T01:50:33;3.6;;;3.3;;
26824;SDS011;14402;48.178;11.566;2023-02-01T01:51:03;4.1;;;3.5;;
26824;SDS011;14402;48.178;11.566;2023-02-01T01:51:35;4.7;;;3.7;;
26824;SDS011;14402;48.178;11.566;2023-02-01T01:52:03;4.7;;;3.7;;
26824;SDS011;14402;48.178;11.566;2023-02-01T01:52:33;4.7;;;3.7;;
26824;SDS011;14402;48.178;11.566;2023-02-01T01:53:04;4.5;;;3.6;;
26824;SDS011;14402;48.178;11.566;2023-02-01T01:53:34;4.3;;;3.5;;
26824;SDS011;14402;48.178;11.566;2023-02-01T01:54:04;4.3;;;3.5;;
26824;SDS011;14402;48.178;11.566;2023-02-01T01:54:34;4.3;;;3.5;;
26824;SDS011;14402;48.178;11.566;2023-02-01T01:55:03;4.1;;;3.5;;
26824;SDS011;14402;48.178;11.566;2023-02-01T01:55:35;3.8;;;3.4;;
26824;SDS011;14402;48.178;11.566;2023-02-01T01:56:03;3.8;;;3.4;;
26824;SDS011;14402;48.178;11.566;2023-02-01T01:56:34;3.8;;;3.4;;
26824;SDS011;14402;48.178;11.566;2023-02-01T01:57:04;3.8;;;3.5;;
26824;SDS011;14402;48.178;11.566;2023-02-01T01:57:34;3.9;;;3.5;;
26824;SDS011;14402;48.178;11.566;2023-02-01T01:58:04;3.9;;;3.5;;
26824;SDS011;14402;48.178;11.566;2023-02-01T01:58:34;3.9;;;3.5;;
26824;SDS011;14402;48.178;11.566;2023-02-01T01:59:04;4.2;;;3.6;;
26824;SDS011;14402;48.178;11.566;2023-02-01T01:59:34;4.5;;;3.7;;
26824;SDS011;14402;48.178;11.566;2023-02-01T02:00:05;4.5;;;3.7;;
26824;SDS011;14402;48.178;11.566;2023-02-01T02:00:34;4.5;;;3.7;;
26824;SDS011;14402;48.178;11.566;2023-02-01T02:01:04;4.3;;;3.6;;
26824;SDS011;14402;48.178;11.566;2023-02-01T02:01:34;4.2;;;3.4;;
26824;SDS011;14402;48.178;11.566;2023-02-01T02:02:04;4.2;;;3.4;;
26824;SDS011;14402;48.178;11.566;2023-02-01T02:02:35;4.2;;;3.4;;
26824;SDS011;14402;48.178;11.566;2023-02-01T02:03:06;4.6;;;3.8;;
26824;SDS011;14402;48.178;11.566;2023-02-01T02:03:35;5.0;;;4.1;;
26824;SDS011;14402;48.178;11.566;2023-02-01T02:04:05;5.0;;;4.1;;
26824;SDS011;14402;48.178;11.566;2023-02-01T02:04:35;5.0;;;4.1;;
26824;SDS011;14402;48.178;11.566;2023-02-01T02:05:05;4.9;;;3.9;;
26824;SDS011;14402;48.178;11.566;2023-02-01T02:05:35;4.8;;;3.8;;
26824;SDS011;14402;48.178;11.566;2023-02-01T02:06:09;4.8;;;3.8;;
26824;SDS011;14402;48.178;11.566;2023-02-01T02:06:39;4.8;;;3.8;;
26824;SDS011;14402;48.178;11.566;2023-02-01T02:07:07;5.1;;;3.7;;
26824;SDS011;14402;48.178;11.566;2023-02-01T02:07:36;5.4;;;3.6;;
26824;SDS011;14402;48.178;11.566;2023-02-01T02:08:05;5.4;;;3.6;;
26824;SDS011;14402;48.178;11.566;2023-02-01T02:08:36;5.4;;;3.6;;
26824;SDS011;14402;48.178;11.566;2023-02-01T02:09:06;4.8;;;3.5;;
26824;SDS011;14402;48.178;11.566;2023-02-01T02:09:36;4.1;;;3.5;;
26824;SDS011;14402;48.178;11.566;2023-02-01T02:10:07;4.1;;;3.5;;
26824;SDS011;14402;48.178;11.566;2023-02-01T02:10:36;4.1;;;3.5;;
26824;SDS011;14402;48.178;11.566;2023-02-01T02:11:09;4.2;;;3.6;;
26824;SDS011;14402;48.178;11.566;2023-02-01T02:11:36;4.4;;;3.7;;
26824;SDS011;14402;48.178;11.566;2023-02-01T02:12:06;4.4;;;3.7;;
26824;SDS011;14402;48.178;11.566;2023-02-01T02:12:37;4.4;;;3.7;;
26824;SDS011;14402;48.178;11.566;2023-02-01T02:13:06;4.2;;;3.7;;
26824;SDS011;14402;48.178;11.566;2023-02-01T02:13:37;4.1;;;3.7;;
26824;SDS011;14402;48.178;11.566;2023-02-01T02:14:07;4.1;;;3.7;;
26824;SDS011;14402;48.178;11.566;2023-02-01T02:14:36;4.1;;;3.7;;
26824;SDS011;14402;48.178;11.566;2023-02-01T02:15:07;4.7;;;3.8;;
26824;SDS011;14402;48.178;11.566;2023-02-01T02:15:37;5.3;;;3.8;;
26824;SDS011;14402;48.178;11.566;2023-02-01T02:16:12;5.3;;;3.8;;
26824;SDS011;14402;48.178;11.566;2023-02-01T02:16:43;5.3;;;3.8;;
26824;SDS011;14402;48.178;11.566;2023-02-01T02:17:12;4.7;;;3.8;;
26824;SDS011;14402;48.178;11.566;2023-02-01T02:17:39;4.1;;;3.7;;
26824;SDS011;14402;48.178;11.566;2023-02-01T02:18:08;4.1;;;3.7;;
26824;SDS011;14402;48.178;11.566;2023-02-01T02:18:38;4.1;;;3.7;;
26824;SDS011;14402;48.178;11.566;2023-02-01T02:19:14;4.3;;;3.8;;
26824;SDS011;14402;48.178;11.566;2023-02-01T02:19:45;4.5;;;4.0;;
26824;SDS011;14402;48.178;11.566;2023-02-01T02:20:14;4.5;;;4.0;;
26824;SDS011;14402;48.178;11.566;2023-02-01T02:20:48;4.5;;;4.0;;
26824;SDS011;14402;48.178;11.566;2023-02-01T02:21:10;4.6;;;3.9;;
26824;SDS011;14402;48.178;11.566;2023-02-01T02:21:42;4.6;;;3.8;;
26824;SDS011;14402;48.178;11.566;2023-02-01T02:22:13;4.6;;;3.8;;
26824;SDS011;14402;48.178;11.566;2023-02-01T02:22:45;4.6;;;3.8;;
26824;SDS011;14402;48.178;11.566;2023-02-01T02:23:15;5.1;;;3.9;;
26824;SDS011;14402;48.178;11.566;2023-02-01T02:23:49;5.7;;;4.1;;
26824;SDS011;14402;48.178;11.566;2023-02-01T02:24:14;5.7;;;4.1;;
26824;SDS011;14402;48.178;11.566;2023-02-01T02:24:43;5.7;;;4.1;;
26824;SDS011;14402;48.178;11.566;2023-02-01T02:25:16;5.1;;;3.9;;
26824;SDS011;14402;48.178;11.566;2023-02-01T02:25:43;4.5;;;3.7;;
26824;SDS011;14402;48.178;11.566;2023-02-01T02:26:20;4.5;;;3.7;;
26824;SDS011;14402;48.178;11.566;2023-02-01T02:26:48;4.5;;;3.7;;
26824;SDS011;14402;48.178;11.566;2023-02-01T02:27:09;4.3;;;3.8;;
26824;SDS011;14402;48.178;11.566;2023-02-01T02:27:41;4.2;;;3.8;;
26824;SDS011;14402;48.178;11.566;2023-02-01T02:28:11;4.2;;;3.8;;
26824;SDS011;14402;48.178;11.566;2023-02-01T02:28:46;4.2;;;3.8;;
26824;SDS011;14402;48.178;11.566;2023-02-01T02:29:16;4.1;;;3.7;;
26824;SDS011;14402;48.178;11.566;2023-02-01T02:29:45;4.1;;;3.6;;
26824;SDS011;14402;48.178;11.566;2023-02-01T02:30:15;4.1;;;3.6;;
26824;SDS011;14402;48.178;11.566;2023-02-01T02:30:43;4.1;;;3.6;;
26824;SDS011;14402;48.178;11.566;2023-02-01T02:31:15;4.1;;;3.6;;
26824;SDS011;14402;48.178;11.566;2023-02-01T02:31:41;4.0;;;3.6;;
26824;SDS011;14402;48.178;11.566;2023-02-01T02:32:17;4.0;;;3.6;;
26824;SDS011;14402;48.178;11.566;2023-02-01T02:32:45;4.0;;;3.6;;
26824;SDS011;14402;48.178;11.566;2023-02-01T02:33:31;4.2;;;3.8;;
26824;SDS011;14402;48.178;11.566;2023-02-01T02:33:39;4.4;;;4.0;;
26824;SDS011;14402;48.178;11.566;2023-02-01T02:34:12;4.4;;;4.0;;
26824;SDS011;14402;48.178;11.566;2023-02-01T02:34:40;4.4;;;4.0;;
26824;SDS011;14402;48.178;11.566;2023-02-01T02:35:10;4.2;;;3.8;;
26824;SDS011;14402;48.178;11.566;2023-02-01T02:35:41;4.0;;;3.6;;
26824;SDS011;14402;48.178;11.566;2023-02-01T02:36:11;4.0;;;3.6;;
26824;SDS011;14402;48.178;11.566;2023-02-01T02:36:43;4.0;;;3.6;;
26824;SDS011;14402;48.178;11.566;2023-02-01T02:37:11;4.3;;;3.7;;
26824;SDS011;14402;48.178;11.566;2023-02-01T02:37:41;4.6;;;3.7;;
26824;SDS011;14402;48.178;11.566;2023-02-01T02:38:12;4.6;;;3.7;;
26824;SDS011;14402;48.178;11.566;2023-02-01T02:38:41;4.6;;;3.7;;
26824;SDS011;14402;48.178;11.566;2023-02-01T02:39:13;4.4;;;3.8;;
26824;SDS011;14402;48.178;11.566;2023-02-01T02:39:42;4.3;;;3.9;;
26824;SDS011;14402;48.178;11.566;2023-02-01T02:40:13;4.3;;;3.9;;
26824;SDS011;14402;48.178;11.566;2023-02-01T02:40:42;4.3;;;3.9;;
26824;SDS011;14402;48.178;11.566;2023-02-01T02:41:13;4.9;;;4.1;;
26824;SDS011;14402;48.178;11.566;2023-02-01T03:17:19;3.5;;;3.1;;
26824;SDS011;14402;48.178;11.566;2023-02-01T03:17:47;3.5;;;3.2;;
26824;SDS011;14402;48.178;11.566;2023-02-01T03:18:19;3.5;;;3.2;;
26824;SDS011;14402;48.178;11.566;2023-02-01T03:18:48;3.5;;;3.2;;
26824;SDS011;14402;48.178;11.566;2023-02-01T03:19:19;3.8;;;3.2;;
26824;SDS011;14402;48.178;11.566;2023-02-01T03:19:48;4.0;;;3.3;;
26824;SDS011;14402;48.178;11.566;2023-02-01T03:20:18;4.0;;;3.3;;
26824;SDS011;14402;48.178;11.566;2023-02-01T03:20:49;4.0;;;3.3;;
26824;SDS011;14402;48.178;11.566;2023-02-01T03:21:19;3.7;;;3.2;;
26824;SDS011;14402;48.178;11.566;2023-02-01T03:21:49;3.3;;;3.0;;
26824;SDS011;14402;48.178;11.566;2023-02-01T03:22:19;3.3;;;3.0;;
26824;SDS011;14402;48.178;11.566;2023-02-01T03:22:48;3.3;;;3.0;;
26824;SDS011;14402;48.178;11.566;2023-02-01T03:23:19;3.3;;;3.0;;
26824;SDS011;14402;48.178;11.566;2023-02-01T03:23:48;3.4;;;2.9;;
26824;SDS011;14402;48.178;11.566;2023-02-01T03:24:19;3.4;;;2.9;;
26824;SDS011;14402;48.178;11.566;2023-02-01T03:24:49;3.4;;;2.9;;
26824;SDS011;14402;48.178;11.566;2023-02-01T03:25:20;3.5;;;3.0;;
26824;SDS011;14402;48.178;11.566;2023-02-01T03:25:48;3.6;;;3.1;;
26824;SDS011;14402;48.178;11.566;2023-02-01T03:26:19;3.6;;;3.1;;
26824;SDS011;14402;48.178;11.566;2023-02-01T03:26:50;3.6;;;3.1;;
26824;SDS011;14402;48.178;11.566;2023-02-01T03:27:20;3.5;;;3.1;;
26824;SDS011;14402;48.178;11.566;2023-02-01T03:27:51;3.4;;;3.1;;
26824;SDS011;14402;48.178;11.566;2023-02-01T03:28:19;3.4;;;3.1;;
26824;SDS011;14402;48.178;11.566;2023-02-01T03:28:51;3.4;;;3.1;;
26824;SDS011;14402;48.178;11.566;2023-02-01T03:29:21;3.2;;;2.8;;
26824;SDS011;14402;48.178;11.566;2023-02-01T03:29:50;2.9;;;2.6;;
26824;SDS011;14402;48.178;11.566;2023-02-01T03:30:20;2.9;;;2.6;;
26824;SDS011;14402;48.178;11.566;2023-02-01T03:30:49;2.9;;;2.6;;
26824;SDS011;14402;48.178;11.566;2023-02-01T03:31:19;3.0;;;2.7;;
26824;SDS011;14402;48.178;11.566;2023-02-01T03:31:49;3.1;;;2.8;;
26824;SDS011;14402;48.178;11.566;2023-02-01T03:32:20;3.1;;;2.8;;
26824;SDS011;14402;48.178;11.566;2023-02-01T03:32:50;3.1;;;2.8;;
26824;SDS011;14402;48.178;11.566;2023-02-01T03:33:21;3.2;;;2.8;;
26824;SDS011;14402;48.178;11.566;2023-02-01T03:33:50;3.3;;;2.8;;
26824;SDS011;14402;48.178;11.566;2023-02-01T03:34:20;3.3;;;2.8;;
26824;SDS011;14402;48.178;11.566;2023-02-01T03:34:50;3.3;;;2.8;;
26824;SDS011;14402;48.178;11.566;2023-02-01T03:35:20;3.1;;;2.7;;
26824;SDS011;14402;48.178;11.566;2023-02-01T03:35:54;2.9;;;2.6;;
26824;SDS011;14402;48.178;11.566;2023-02-01T03:36:22;2.9;;;2.6;;
26824;SDS011;14402;48.178;11.566;2023-02-01T03:36:51;2.9;;;2.6;;
26824;SDS011;14402;48.178;11.566;2023-02-01T03:37:22;3.0;;;2.7;;
26824;SDS011;14402;48.178;11.566;2023-02-01T03:37:50;3.1;;;2.7;;
26824;SDS011;14402;48.178;11.566;2023-02-01T03:38:21;3.1;;;2.7;;
26824;SDS011;14402;48.178;11.566;2023-02-01T03:38:52;3.1;;;2.7;;
26824;SDS011;14402;48.178;11.566;2023-02-01T03:39:22;3.5;;;2.8;;